createdAt,value
2022-12-08T00:00:01.883Z,4.77
2022-12-08T00:01:02.247Z,4.79
2022-12-08T00:02:02.748Z,4.76
2022-12-08T00:03:02.972Z,4.76
2022-12-08T00:04:03.138Z,4.73
2022-12-08T00:05:03.543Z,4.69
2022-12-08T00:06:03.699Z,4.67
2022-12-08T00:07:04.056Z,4.67
2022-12-08T00:08:04.412Z,4.59
2022-12-08T00:09:04.608Z,4.65
2022-12-08T00:10:25.121Z,4.61
2022-12-08T00:11:06.208Z,4.61
2022-12-08T00:12:05.570Z,4.61
2022-12-08T00:13:05.834Z,4.62
2022-12-08T00:14:06.128Z,4.62
2022-12-08T00:15:06.591Z,4.61
2022-12-08T00:16:06.657Z,4.57
2022-12-08T00:17:06.859Z,4.52
2022-12-08T00:18:07.186Z,4.54
2022-12-08T00:19:07.475Z,4.58
2022-12-08T00:20:07.827Z,4.57
2022-12-08T00:21:09.036Z,4.54
2022-12-08T00:22:08.456Z,4.54
2022-12-08T00:23:08.848Z,4.52
2022-12-08T00:24:09.077Z,4.54
2022-12-08T00:25:09.269Z,4.54
2022-12-08T00:26:09.585Z,4.59
2022-12-08T00:27:09.889Z,4.62
2022-12-08T00:28:10.208Z,4.64
2022-12-08T00:29:15.890Z,4.62
2022-12-08T00:30:11.870Z,4.58
2022-12-08T00:31:11.129Z,4.61
2022-12-08T00:32:11.514Z,4.67
2022-12-08T00:33:11.776Z,4.70
2022-12-08T00:34:12.015Z,4.72
2022-12-08T00:35:12.393Z,4.67
2022-12-08T00:36:12.594Z,4.65
2022-12-08T00:37:12.876Z,4.73
2022-12-08T00:38:13.210Z,4.72
2022-12-08T00:39:13.546Z,4.76
2022-12-08T00:40:13.752Z,4.75
2022-12-08T00:41:14.055Z,4.76
2022-12-08T00:42:14.389Z,4.76
2022-12-08T00:43:14.725Z,4.75
2022-12-08T00:44:15.886Z,4.69
2022-12-08T00:45:15.206Z,4.72
2022-12-08T00:46:15.546Z,4.65
2022-12-08T00:47:18.665Z,4.65
2022-12-08T00:48:17.166Z,4.67
2022-12-08T00:49:16.356Z,4.64
2022-12-08T00:50:16.720Z,4.65
2022-12-08T00:51:16.961Z,4.65
2022-12-08T00:52:17.258Z,4.67
2022-12-08T00:53:17.584Z,4.73
2022-12-08T00:54:17.950Z,4.75
2022-12-08T00:55:18.255Z,4.76
2022-12-08T00:56:18.972Z,4.76
2022-12-08T00:57:18.879Z,4.77
2022-12-08T00:58:19.189Z,4.80
2022-12-08T00:59:19.407Z,4.79
2022-12-08T01:00:19.747Z,4.77
2022-12-08T01:01:20.120Z,4.79
2022-12-08T01:02:20.376Z,4.79
2022-12-08T01:03:20.573Z,4.86
2022-12-08T01:04:20.899Z,4.79
2022-12-08T01:05:21.245Z,4.80
2022-12-08T01:06:21.509Z,4.69
2022-12-08T01:07:21.803Z,4.67
2022-12-08T01:08:21.995Z,4.67
2022-12-08T01:09:22.234Z,4.64
2022-12-08T01:10:22.569Z,4.59
2022-12-08T01:11:22.844Z,4.55
2022-12-08T01:12:23.239Z,4.50
2022-12-08T01:13:23.438Z,4.52
2022-12-08T01:14:23.740Z,4.46
2022-12-08T01:15:24.108Z,4.51
2022-12-08T01:16:24.396Z,4.52
2022-12-08T01:17:25.672Z,4.55
2022-12-08T01:18:24.982Z,4.55
2022-12-08T01:19:25.191Z,4.55
2022-12-08T01:20:25.589Z,4.58
2022-12-08T01:21:25.788Z,4.54
2022-12-08T01:22:26.146Z,4.55
2022-12-08T01:23:26.446Z,4.59
2022-12-08T01:24:26.751Z,4.59
2022-12-08T01:25:27.044Z,4.54
2022-12-08T01:26:27.408Z,4.58
2022-12-08T01:27:27.589Z,4.54
2022-12-08T01:28:27.884Z,4.57
2022-12-08T01:29:28.221Z,4.54
2022-12-08T01:30:28.439Z,4.58
2022-12-08T01:31:28.825Z,4.52
2022-12-08T01:32:29.037Z,4.50
2022-12-08T01:33:29.383Z,4.44
2022-12-08T01:34:29.727Z,4.46
2022-12-08T01:35:30.051Z,4.39
2022-12-08T01:36:30.378Z,4.42
2022-12-08T01:37:30.688Z,4.43
2022-12-08T01:38:31.010Z,4.42
2022-12-08T01:39:31.228Z,4.43
2022-12-08T01:40:31.564Z,4.44
2022-12-08T01:41:31.851Z,4.46
2022-12-08T01:42:32.190Z,4.50
2022-12-08T01:43:32.508Z,4.47
2022-12-08T01:44:32.846Z,4.47
2022-12-08T01:45:33.125Z,4.50
2022-12-08T01:46:33.561Z,4.37
2022-12-08T01:47:33.651Z,4.36
2022-12-08T01:48:34.058Z,4.42
2022-12-08T01:49:34.284Z,4.36
2022-12-08T01:50:34.493Z,4.40
2022-12-08T01:51:34.710Z,4.37
2022-12-08T01:52:35.058Z,4.43
2022-12-08T01:53:35.311Z,4.42
2022-12-08T01:54:35.678Z,4.44
2022-12-08T01:55:35.957Z,4.46
2022-12-08T01:56:36.407Z,4.46
2022-12-08T01:57:36.592Z,4.51
2022-12-08T01:58:37.004Z,4.47
2022-12-08T01:59:37.261Z,4.46
2022-12-08T02:00:37.416Z,4.43
2022-12-08T02:01:37.922Z,4.42
2022-12-08T02:02:38.094Z,4.37
2022-12-08T02:03:38.341Z,4.24
2022-12-08T02:04:38.710Z,4.21
2022-12-08T02:05:38.947Z,4.22
2022-12-08T02:06:39.291Z,4.21
2022-12-08T02:07:39.619Z,4.24
2022-12-08T02:08:39.989Z,4.22
2022-12-08T02:09:40.226Z,4.28
2022-12-08T02:10:40.583Z,4.29
2022-12-08T02:11:40.775Z,4.32
2022-12-08T02:12:41.019Z,4.26
2022-12-08T02:13:41.412Z,4.25
2022-12-08T02:14:41.746Z,4.29
2022-12-08T02:15:41.953Z,4.21
2022-12-08T02:16:42.224Z,4.19
2022-12-08T02:17:42.541Z,4.25
2022-12-08T02:18:42.935Z,4.22
2022-12-08T02:19:43.161Z,4.28
2022-12-08T02:20:43.414Z,4.28
2022-12-08T02:21:43.657Z,4.26
2022-12-08T02:22:43.953Z,4.25
2022-12-08T02:23:44.653Z,4.32
2022-12-08T02:24:44.550Z,4.34
2022-12-08T02:25:44.869Z,4.33
2022-12-08T02:26:45.194Z,4.37
2022-12-08T02:27:45.392Z,4.36
2022-12-08T02:28:45.775Z,4.37
2022-12-08T02:29:46.087Z,4.42
2022-12-08T02:30:46.448Z,4.42
2022-12-08T02:31:46.639Z,4.28
2022-12-08T02:32:46.975Z,4.25
2022-12-08T02:33:47.345Z,4.32
2022-12-08T02:34:47.543Z,4.32
2022-12-08T02:35:47.827Z,4.33
2022-12-08T02:36:48.210Z,4.34
2022-12-08T02:37:48.580Z,4.32
2022-12-08T02:38:49.514Z,4.34
2022-12-08T02:39:49.135Z,4.28
2022-12-08T02:40:49.453Z,4.36
2022-12-08T02:41:49.788Z,4.36
2022-12-08T02:42:50.054Z,4.40
2022-12-08T02:43:50.222Z,4.37
2022-12-08T02:44:50.594Z,4.40
2022-12-08T02:45:50.878Z,4.40
2022-12-08T02:46:51.168Z,4.40
2022-12-08T02:47:51.354Z,4.40
2022-12-08T02:48:51.721Z,4.36
2022-12-08T02:49:52.047Z,4.40
2022-12-08T02:50:52.403Z,4.40
2022-12-08T02:51:52.571Z,4.44
2022-12-08T02:52:52.949Z,4.50
2022-12-08T02:53:53.156Z,4.51
2022-12-08T02:54:53.884Z,4.58
2022-12-08T02:55:53.796Z,4.57
2022-12-08T02:56:54.093Z,4.52
2022-12-08T02:57:54.426Z,4.51
2022-12-08T02:58:54.643Z,4.52
2022-12-08T02:59:55.038Z,4.51
2022-12-08T03:00:55.248Z,4.42
2022-12-08T03:01:55.624Z,4.47
2022-12-08T03:02:55.911Z,4.46
2022-12-08T03:03:56.224Z,4.50
2022-12-08T03:04:56.406Z,4.47
2022-12-08T03:05:56.769Z,4.50
2022-12-08T03:06:56.984Z,4.46
2022-12-08T03:07:57.307Z,4.51
2022-12-08T03:08:57.480Z,4.52
2022-12-08T03:09:57.824Z,4.55
2022-12-08T03:10:58.195Z,4.59
2022-12-08T03:11:58.421Z,4.61
2022-12-08T03:12:58.710Z,4.58
2022-12-08T03:13:59.022Z,4.57
2022-12-08T03:14:59.370Z,4.57
2022-12-08T03:15:59.715Z,4.55
2022-12-08T03:16:59.937Z,4.51
2022-12-08T03:18:00.320Z,4.54
2022-12-08T03:19:00.606Z,4.54
2022-12-08T03:20:00.926Z,4.47
2022-12-08T03:21:01.274Z,4.52
2022-12-08T03:22:01.461Z,4.50
2022-12-08T03:23:01.767Z,4.50
2022-12-08T03:24:02.063Z,4.43
2022-12-08T03:25:02.408Z,4.44
2022-12-08T03:26:02.719Z,4.37
2022-12-08T03:27:03.084Z,4.37
2022-12-08T03:28:03.423Z,4.34
2022-12-08T03:29:03.762Z,4.25
2022-12-08T03:30:04.316Z,4.25
2022-12-08T03:31:04.332Z,4.24
2022-12-08T03:32:04.567Z,4.24
2022-12-08T03:33:04.905Z,4.24
2022-12-08T03:34:05.180Z,4.21
2022-12-08T03:35:05.581Z,4.14
2022-12-08T03:36:05.748Z,4.06
2022-12-08T03:37:06.112Z,4.06
2022-12-08T03:38:06.407Z,4.07
2022-12-08T03:39:06.720Z,4.06
2022-12-08T03:40:07.531Z,4.04
2022-12-08T03:41:07.368Z,4.07
2022-12-08T03:42:07.715Z,4.08
2022-12-08T03:43:08.047Z,4.06
2022-12-08T03:44:08.447Z,4.08
2022-12-08T03:45:08.662Z,4.07
2022-12-08T03:46:09.042Z,4.14
2022-12-08T03:47:09.285Z,4.15
2022-12-08T03:48:09.606Z,4.14
2022-12-08T03:49:09.855Z,4.16
2022-12-08T03:50:10.125Z,4.19
2022-12-08T03:51:10.342Z,4.15
2022-12-08T03:52:10.617Z,4.12
2022-12-08T03:53:10.888Z,4.12
2022-12-08T03:54:11.196Z,4.08
2022-12-08T03:55:11.556Z,4.10
2022-12-08T03:56:11.919Z,4.12
2022-12-08T03:57:12.245Z,4.18
2022-12-08T03:58:12.451Z,4.18
2022-12-08T03:59:13.192Z,4.19
2022-12-08T04:00:13.071Z,4.16
2022-12-08T04:01:13.425Z,4.21
2022-12-08T04:02:13.727Z,4.18
2022-12-08T04:03:14.081Z,4.12
2022-12-08T04:04:14.341Z,4.15
2022-12-08T04:05:14.587Z,4.04
2022-12-08T04:06:14.801Z,4.04
2022-12-08T04:07:15.163Z,4.00
2022-12-08T04:08:15.477Z,3.92
2022-12-08T04:09:15.738Z,3.98
2022-12-08T04:10:15.956Z,3.94
2022-12-08T04:11:16.288Z,3.98
2022-12-08T04:12:16.551Z,4.01
2022-12-08T04:13:16.888Z,4.04
2022-12-08T04:14:17.303Z,4.06
2022-12-08T04:15:17.488Z,4.07
2022-12-08T04:16:17.842Z,4.08
2022-12-08T04:17:18.058Z,4.07
2022-12-08T04:18:18.380Z,4.04
2022-12-08T04:19:18.704Z,4.04
2022-12-08T04:20:18.926Z,4.06
2022-12-08T04:21:19.156Z,4.04
2022-12-08T04:22:19.463Z,4.08
2022-12-08T04:23:19.795Z,4.07
2022-12-08T04:24:20.077Z,4.10
2022-12-08T04:25:20.443Z,4.16
2022-12-08T04:26:21.611Z,4.21
2022-12-08T04:27:20.944Z,4.24
2022-12-08T04:28:21.309Z,4.15
2022-12-08T04:29:21.524Z,4.18
2022-12-08T04:30:21.753Z,4.16
2022-12-08T04:31:22.153Z,4.19
2022-12-08T04:32:22.405Z,4.12
2022-12-08T04:33:22.805Z,4.07
2022-12-08T04:34:22.994Z,4.08
2022-12-08T04:35:24.194Z,4.07
2022-12-08T04:36:23.653Z,4.08
2022-12-08T04:37:24.021Z,4.06
2022-12-08T04:38:24.198Z,4.03
2022-12-08T04:39:24.552Z,4.00
2022-12-08T04:40:24.836Z,4.01
2022-12-08T04:41:25.223Z,3.98
2022-12-08T04:42:25.454Z,3.98
2022-12-08T04:43:25.808Z,3.94
2022-12-08T04:44:26.154Z,3.94
2022-12-08T04:45:26.377Z,4.01
2022-12-08T04:46:26.717Z,4.00
2022-12-08T04:47:26.983Z,3.97
2022-12-08T04:48:27.273Z,4.06
2022-12-08T04:49:27.623Z,4.03
2022-12-08T04:50:27.966Z,4.00
2022-12-08T04:51:28.321Z,4.01
2022-12-08T04:52:28.492Z,4.04
2022-12-08T04:53:28.953Z,4.03
2022-12-08T04:54:29.105Z,4.08
2022-12-08T04:55:29.440Z,4.08
2022-12-08T04:56:29.738Z,4.12
2022-12-08T04:57:30.095Z,4.10
2022-12-08T04:58:30.361Z,4.01
2022-12-08T04:59:30.683Z,3.98
2022-12-08T05:00:30.979Z,3.97
2022-12-08T05:01:31.376Z,4.00
2022-12-08T05:02:31.694Z,4.00
2022-12-08T05:03:31.995Z,3.96
2022-12-08T05:04:32.260Z,3.92
2022-12-08T05:05:32.627Z,3.96
2022-12-08T05:06:32.913Z,3.90
2022-12-08T05:07:33.324Z,3.90
2022-12-08T05:08:33.561Z,3.89
2022-12-08T05:09:33.811Z,3.94
2022-12-08T05:10:34.107Z,3.90
2022-12-08T05:11:34.401Z,3.80
2022-12-08T05:12:34.820Z,3.86
2022-12-08T05:13:35.023Z,3.89
2022-12-08T05:14:35.330Z,3.85
2022-12-08T05:15:35.649Z,3.89
2022-12-08T05:16:36.062Z,3.94
2022-12-08T05:17:36.364Z,3.92
2022-12-08T05:18:36.544Z,3.98
2022-12-08T05:19:36.907Z,3.96
2022-12-08T05:20:37.110Z,4.01
2022-12-08T05:21:37.457Z,4.01
2022-12-08T05:22:37.745Z,3.98
2022-12-08T05:23:37.981Z,3.96
2022-12-08T05:24:42.531Z,3.92
2022-12-08T05:25:39.519Z,3.88
2022-12-08T05:26:38.761Z,3.88
2022-12-08T05:27:38.987Z,3.86
2022-12-08T05:28:42.448Z,3.92
2022-12-08T05:29:39.619Z,3.94
2022-12-08T05:30:39.990Z,3.94
2022-12-08T05:31:40.155Z,3.98
2022-12-08T05:32:40.480Z,3.96
2022-12-08T05:33:40.789Z,3.85
2022-12-08T05:34:41.094Z,3.83
2022-12-08T05:35:41.442Z,3.83
2022-12-08T05:36:41.641Z,3.82
2022-12-08T05:37:41.931Z,3.80
2022-12-08T05:38:42.236Z,3.83
2022-12-08T05:39:42.607Z,3.89
2022-12-08T05:40:42.916Z,3.88
2022-12-08T05:41:43.257Z,3.80
2022-12-08T05:42:43.443Z,3.83
2022-12-08T05:43:43.839Z,3.78
2022-12-08T05:44:44.067Z,3.78
2022-12-08T05:45:44.497Z,3.88
2022-12-08T05:46:44.683Z,3.83
2022-12-08T05:47:44.939Z,3.80
2022-12-08T05:48:45.263Z,3.82
2022-12-08T05:49:45.564Z,3.83
2022-12-08T05:50:45.797Z,3.76
2022-12-08T05:51:46.100Z,3.71
2022-12-08T05:52:46.439Z,3.75
2022-12-08T05:53:46.744Z,3.68
2022-12-08T05:54:47.094Z,3.68
2022-12-08T05:55:47.492Z,3.65
2022-12-08T05:56:47.683Z,3.67
2022-12-08T05:57:48.249Z,3.68
2022-12-08T05:58:48.419Z,3.67
2022-12-08T05:59:48.778Z,3.71
2022-12-08T06:00:49.153Z,3.65
2022-12-08T06:01:49.406Z,3.71
2022-12-08T06:02:49.869Z,3.68
2022-12-08T06:03:49.784Z,3.64
2022-12-08T06:04:50.053Z,3.67
2022-12-08T06:05:50.432Z,3.67
2022-12-08T06:06:50.717Z,3.61
2022-12-08T06:07:51.026Z,3.62
2022-12-08T06:08:51.263Z,3.67
2022-12-08T06:09:51.605Z,3.61
2022-12-08T06:10:51.913Z,3.61
2022-12-08T06:11:52.251Z,3.65
2022-12-08T06:12:52.473Z,3.65
2022-12-08T06:13:52.914Z,3.58
2022-12-08T06:14:53.126Z,3.62
2022-12-08T06:15:53.436Z,3.61
2022-12-08T06:16:53.975Z,3.62
2022-12-08T06:17:54.121Z,3.62
2022-12-08T06:18:54.271Z,3.62
2022-12-08T06:19:54.631Z,3.67
2022-12-08T06:20:54.751Z,3.58
2022-12-08T06:21:55.146Z,3.65
2022-12-08T06:22:55.302Z,3.67
2022-12-08T06:23:55.620Z,3.65
2022-12-08T06:24:55.961Z,3.58
2022-12-08T06:25:56.387Z,3.62
2022-12-08T06:26:56.479Z,3.64
2022-12-08T06:27:56.867Z,3.62
2022-12-08T06:28:57.131Z,3.70
2022-12-08T06:29:57.681Z,3.70
2022-12-08T06:30:57.714Z,3.78
2022-12-08T06:31:58.013Z,3.80
2022-12-08T06:32:58.292Z,3.79
2022-12-08T06:33:58.647Z,3.83
2022-12-08T06:34:58.928Z,3.86
2022-12-08T06:35:59.030Z,3.90
2022-12-08T06:36:59.378Z,3.88
2022-12-08T06:37:59.706Z,3.89
2022-12-08T06:38:59.879Z,3.96
2022-12-08T06:40:00.229Z,3.89
2022-12-08T06:41:00.457Z,3.85
2022-12-08T06:42:00.723Z,3.80
2022-12-08T06:43:01.005Z,3.86
2022-12-08T06:44:01.401Z,3.82
2022-12-08T06:45:01.740Z,3.88
2022-12-08T06:46:02.081Z,3.90
2022-12-08T06:47:02.296Z,3.89
2022-12-08T06:48:02.468Z,3.89
2022-12-08T06:49:02.714Z,3.92
2022-12-08T06:50:03.719Z,3.96
2022-12-08T06:51:03.351Z,3.89
2022-12-08T06:52:03.644Z,3.92
2022-12-08T06:53:05.702Z,3.92
2022-12-08T06:54:04.213Z,3.85
2022-12-08T06:55:04.382Z,3.89
2022-12-08T06:56:04.669Z,3.85
2022-12-08T06:57:04.935Z,3.88
2022-12-08T06:58:14.785Z,3.80
2022-12-08T06:59:06.546Z,3.79
2022-12-08T07:00:06.096Z,3.80
2022-12-08T07:01:06.137Z,3.75
2022-12-08T07:02:06.513Z,3.76
2022-12-08T07:03:06.652Z,3.75
2022-12-08T07:04:07.046Z,3.76
2022-12-08T07:05:07.123Z,3.79
2022-12-08T07:06:07.425Z,3.82
2022-12-08T07:07:07.677Z,3.85
2022-12-08T07:08:08.050Z,3.82
2022-12-08T07:09:08.169Z,3.80
2022-12-08T07:10:08.578Z,3.82
2022-12-08T07:11:08.690Z,3.89
2022-12-08T07:12:09.028Z,3.96
2022-12-08T07:13:09.258Z,3.92
2022-12-08T07:14:09.501Z,3.94
2022-12-08T07:15:09.775Z,3.98
2022-12-08T07:16:10.066Z,3.96
2022-12-08T07:17:10.351Z,4.01
2022-12-08T07:18:10.585Z,4.00
2022-12-08T07:19:10.872Z,4.07
2022-12-08T07:20:11.137Z,4.03
2022-12-08T07:21:11.396Z,3.96
2022-12-08T07:22:11.679Z,3.98
2022-12-08T07:23:11.937Z,3.96
2022-12-08T07:24:12.187Z,3.90
2022-12-08T07:25:12.442Z,3.94
2022-12-08T07:26:12.705Z,3.89
2022-12-08T07:27:12.986Z,3.85
2022-12-08T07:28:13.251Z,3.89
2022-12-08T07:29:13.519Z,3.86
2022-12-08T07:30:13.792Z,3.83
2022-12-08T07:31:14.207Z,3.82
2022-12-08T07:32:14.334Z,3.79
2022-12-08T07:33:14.627Z,3.82
2022-12-08T07:34:14.871Z,3.82
2022-12-08T07:35:15.177Z,3.92
2022-12-08T07:36:15.400Z,3.96
2022-12-08T07:37:15.647Z,3.96
2022-12-08T07:38:15.888Z,3.97
2022-12-08T07:39:16.193Z,4.00
2022-12-08T07:40:16.490Z,3.98
2022-12-08T07:41:16.814Z,4.07
2022-12-08T07:42:17.144Z,3.98
2022-12-08T07:43:17.310Z,3.98
2022-12-08T07:44:17.670Z,3.94
2022-12-08T07:45:17.969Z,3.85
2022-12-08T07:46:18.208Z,3.89
2022-12-08T07:47:18.420Z,3.96
2022-12-08T07:48:18.826Z,3.90
2022-12-08T07:49:19.072Z,3.96
2022-12-08T07:50:19.322Z,3.96
2022-12-08T07:51:19.566Z,3.96
2022-12-08T07:52:19.802Z,3.94
2022-12-08T07:53:20.113Z,3.98
2022-12-08T07:54:20.363Z,4.01
2022-12-08T07:55:20.622Z,4.04
2022-12-08T07:56:20.893Z,4.00
2022-12-08T07:57:21.169Z,4.04
2022-12-08T07:58:21.503Z,4.04
2022-12-08T07:59:22.329Z,4.06
2022-12-08T08:00:22.048Z,4.07
2022-12-08T08:01:22.492Z,4.10
2022-12-08T08:02:25.671Z,4.10
2022-12-08T08:03:22.871Z,4.12
2022-12-08T08:04:23.241Z,4.15
2022-12-08T08:05:23.488Z,4.16
2022-12-08T08:06:23.781Z,4.10
2022-12-08T08:07:24.014Z,4.16
2022-12-08T08:08:24.409Z,4.18
2022-12-08T08:09:24.642Z,4.15
2022-12-08T08:10:24.843Z,4.15
2022-12-08T08:11:25.176Z,4.07
2022-12-08T08:12:33.182Z,4.15
2022-12-08T08:13:26.737Z,4.12
2022-12-08T08:14:26.001Z,4.12
2022-12-08T08:15:26.291Z,4.15
2022-12-08T08:16:26.943Z,4.19
2022-12-08T08:17:26.957Z,4.22
2022-12-08T08:18:27.074Z,4.24
2022-12-08T08:19:27.305Z,4.19
2022-12-08T08:20:27.592Z,4.16
2022-12-08T08:22:29.142Z,4.22
2022-12-08T08:23:28.446Z,4.25
2022-12-08T08:24:28.679Z,4.29
2022-12-08T08:25:28.954Z,4.33
2022-12-08T08:26:29.225Z,4.37
2022-12-08T08:27:29.501Z,4.40
2022-12-08T08:28:29.788Z,4.42
2022-12-08T08:29:30.053Z,4.37
2022-12-08T08:30:30.461Z,4.34
2022-12-08T08:31:30.614Z,4.39
2022-12-08T08:32:30.874Z,4.34
2022-12-08T08:33:31.167Z,4.29
2022-12-08T08:34:31.443Z,4.33
2022-12-08T08:35:31.693Z,4.32
2022-12-08T08:36:31.969Z,4.34
2022-12-08T08:37:32.208Z,4.26
2022-12-08T08:38:32.566Z,4.25
2022-12-08T08:39:32.844Z,4.22
2022-12-08T08:40:33.203Z,4.19
2022-12-08T08:41:33.281Z,4.18
2022-12-08T08:42:33.578Z,4.25
2022-12-08T08:43:38.128Z,4.21
2022-12-08T08:44:48.599Z,4.24
2022-12-08T08:45:34.430Z,4.19
2022-12-08T08:46:34.766Z,4.19
2022-12-08T08:47:34.902Z,4.19
2022-12-08T08:48:35.305Z,4.25
2022-12-08T08:49:35.394Z,4.32
2022-12-08T08:50:37.757Z,4.28
2022-12-08T08:51:35.873Z,4.26
2022-12-08T08:52:36.148Z,4.34
2022-12-08T08:53:36.446Z,4.32
2022-12-08T08:54:36.659Z,4.39
2022-12-08T08:55:36.932Z,4.36
2022-12-08T08:56:37.208Z,4.37
2022-12-08T08:57:37.465Z,4.34
2022-12-08T08:58:37.756Z,4.32
2022-12-08T08:59:38.055Z,4.22
2022-12-08T09:00:38.360Z,4.32
2022-12-08T09:01:38.620Z,4.39
2022-12-08T09:02:38.963Z,4.36
2022-12-08T09:03:39.238Z,4.36
2022-12-08T09:04:39.578Z,4.39
2022-12-08T09:05:40.158Z,4.44
2022-12-08T09:06:40.213Z,4.47
2022-12-08T09:07:40.519Z,4.55
2022-12-08T09:08:40.784Z,4.47
2022-12-08T09:09:41.067Z,4.57
2022-12-08T09:10:41.336Z,4.54
2022-12-08T09:11:41.636Z,4.57
2022-12-08T09:12:41.900Z,4.57
2022-12-08T09:13:42.212Z,4.59
2022-12-08T09:14:42.420Z,4.58
2022-12-08T09:15:42.740Z,4.58
2022-12-08T09:16:43.102Z,4.65
2022-12-08T09:17:43.334Z,4.64
2022-12-08T09:18:43.592Z,4.69
2022-12-08T09:19:43.914Z,4.64
2022-12-08T09:20:44.165Z,4.59
2022-12-08T09:21:44.508Z,4.55
2022-12-08T09:22:44.747Z,4.57
2022-12-08T09:23:45.031Z,4.61
2022-12-08T09:24:45.284Z,4.62
2022-12-08T09:25:45.676Z,4.65
2022-12-08T09:26:45.926Z,4.64
2022-12-08T09:27:46.237Z,4.61
2022-12-08T09:28:46.768Z,4.62
2022-12-08T09:29:46.820Z,4.65
2022-12-08T09:30:47.277Z,4.73
2022-12-08T09:31:47.452Z,4.79
2022-12-08T09:32:47.653Z,4.89
2022-12-08T09:33:47.970Z,4.89
2022-12-08T09:34:52.121Z,4.79
2022-12-08T09:35:48.491Z,4.83
2022-12-08T09:36:48.832Z,4.89
2022-12-08T09:37:49.117Z,5.01
2022-12-08T09:38:49.402Z,5.10
2022-12-08T09:39:49.650Z,5.13
2022-12-08T09:40:49.914Z,5.13
2022-12-08T09:41:50.225Z,5.09
2022-12-08T09:42:50.501Z,5.07
2022-12-08T09:43:50.718Z,5.07
2022-12-08T09:44:50.987Z,5.04
2022-12-08T09:45:51.287Z,5.02
2022-12-08T09:46:51.658Z,5.02
2022-12-08T09:47:51.891Z,5.07
2022-12-08T09:48:52.211Z,5.09
2022-12-08T09:49:53.372Z,5.04
2022-12-08T09:50:52.805Z,5.07
2022-12-08T09:51:53.049Z,5.12
2022-12-08T09:52:53.355Z,5.17
2022-12-08T09:53:53.582Z,5.27
2022-12-08T09:54:53.885Z,5.25
2022-12-08T09:55:54.173Z,5.23
2022-12-08T09:56:54.522Z,5.32
2022-12-08T09:57:56.538Z,5.40
2022-12-08T09:58:55.058Z,5.50
2022-12-08T09:59:55.358Z,5.64
2022-12-08T10:00:55.655Z,5.70
2022-12-08T10:01:55.994Z,5.82
2022-12-08T10:02:56.301Z,5.92
2022-12-08T10:03:56.550Z,5.95
2022-12-08T10:04:56.936Z,5.88
2022-12-08T10:05:57.188Z,5.96
2022-12-08T10:06:57.529Z,6.04
2022-12-08T10:07:57.952Z,6.06
2022-12-08T10:08:58.118Z,6.03
2022-12-08T10:09:58.325Z,6.03
2022-12-08T10:10:58.610Z,6.01
2022-12-08T10:11:58.921Z,6.06
2022-12-08T10:12:59.201Z,6.10
2022-12-08T10:13:59.475Z,6.11
2022-12-08T10:14:59.762Z,6.00
2022-12-08T10:16:00.317Z,5.91
2022-12-08T10:17:00.428Z,5.92
2022-12-08T10:18:00.648Z,5.96
2022-12-08T10:19:00.979Z,5.95
2022-12-08T10:20:01.644Z,5.96
2022-12-08T10:21:01.578Z,6.03
2022-12-08T10:22:01.787Z,6.09
2022-12-08T10:23:02.042Z,6.10
2022-12-08T10:24:02.315Z,6.07
2022-12-08T10:25:02.598Z,5.96
2022-12-08T10:26:02.863Z,5.93
2022-12-08T10:27:03.157Z,6.00
2022-12-08T10:28:03.411Z,6.03
2022-12-08T10:29:03.659Z,6.04
2022-12-08T10:30:04.190Z,6.13
2022-12-08T10:31:04.293Z,6.09
2022-12-08T10:32:04.570Z,6.04
2022-12-08T10:33:04.848Z,5.95
2022-12-08T10:34:05.106Z,5.98
2022-12-08T10:35:05.422Z,6.07
2022-12-08T10:36:05.715Z,6.10
2022-12-08T10:37:05.978Z,6.09
2022-12-08T10:38:06.264Z,6.06
2022-12-08T10:39:06.529Z,6.00
2022-12-08T10:40:07.306Z,5.93
2022-12-08T10:41:07.143Z,5.93
2022-12-08T10:42:07.407Z,5.91
2022-12-08T10:43:07.684Z,5.95
2022-12-08T10:44:07.943Z,5.93
2022-12-08T10:45:08.244Z,5.96
2022-12-08T10:46:08.627Z,5.98
2022-12-08T10:47:08.883Z,6.01
2022-12-08T10:48:09.161Z,5.93
2022-12-08T10:49:09.461Z,5.93
2022-12-08T10:50:09.731Z,5.95
2022-12-08T10:51:10.056Z,5.89
2022-12-08T10:52:10.332Z,5.88
2022-12-08T10:53:10.661Z,5.92
2022-12-08T10:54:11.010Z,5.91
2022-12-08T10:55:11.220Z,5.95
2022-12-08T10:56:11.533Z,5.91
2022-12-08T10:57:11.799Z,5.96
2022-12-08T10:58:12.147Z,6.07
2022-12-08T10:59:12.431Z,6.01
2022-12-08T11:00:14.342Z,6.06
2022-12-08T11:01:13.070Z,5.96
2022-12-08T11:02:13.393Z,5.91
2022-12-08T11:03:13.551Z,5.89
2022-12-08T11:04:13.828Z,5.98
2022-12-08T11:05:14.217Z,6.09
2022-12-08T11:06:14.398Z,6.18
2022-12-08T11:07:14.752Z,6.19
2022-12-08T11:08:14.974Z,6.22
2022-12-08T11:09:15.291Z,6.29
2022-12-08T11:10:15.499Z,6.18
2022-12-08T11:11:16.947Z,6.06
2022-12-08T11:12:16.180Z,6.06
2022-12-08T11:13:16.439Z,6.13
2022-12-08T11:14:16.697Z,6.18
2022-12-08T11:15:17.086Z,6.19
2022-12-08T11:16:17.313Z,6.32
2022-12-08T11:17:17.684Z,6.33
2022-12-08T11:18:17.865Z,6.33
2022-12-08T11:19:18.136Z,6.25
2022-12-08T11:20:18.407Z,6.25
2022-12-08T11:21:18.661Z,6.18
2022-12-08T11:22:18.992Z,6.16
2022-12-08T11:23:19.232Z,6.13
2022-12-08T11:24:19.489Z,6.10
2022-12-08T11:25:19.787Z,6.14
2022-12-08T11:26:20.030Z,6.18
2022-12-08T11:27:20.371Z,6.25
2022-12-08T11:28:20.621Z,6.22
2022-12-08T11:29:20.918Z,6.22
2022-12-08T11:30:21.246Z,6.14
2022-12-08T11:31:21.578Z,6.18
2022-12-08T11:32:21.794Z,6.18
2022-12-08T11:33:22.044Z,6.13
2022-12-08T11:34:22.369Z,6.11
2022-12-08T11:35:22.590Z,6.09
2022-12-08T11:36:22.892Z,6.09
2022-12-08T11:37:23.236Z,6.04
2022-12-08T11:38:23.454Z,6.04
2022-12-08T11:39:23.737Z,6.04
2022-12-08T11:40:24.115Z,6.03
2022-12-08T11:41:24.224Z,5.98
2022-12-08T11:42:24.460Z,5.88
2022-12-08T11:43:24.735Z,5.88
2022-12-08T11:44:24.981Z,5.81
2022-12-08T11:45:25.382Z,5.81
2022-12-08T11:46:25.840Z,5.81
2022-12-08T11:47:25.910Z,5.78
2022-12-08T11:48:26.180Z,5.77
2022-12-08T11:49:26.504Z,5.78
2022-12-08T11:50:26.785Z,5.83
2022-12-08T11:51:27.032Z,5.78
2022-12-08T11:52:27.295Z,5.81
2022-12-08T11:53:27.653Z,5.81
2022-12-08T11:54:28.128Z,5.88
2022-12-08T11:55:29.048Z,5.95
2022-12-08T11:56:28.519Z,5.98
2022-12-08T11:57:28.836Z,6.00
2022-12-08T11:58:29.127Z,6.00
2022-12-08T11:59:29.347Z,6.06
2022-12-08T12:00:29.681Z,6.06
2022-12-08T12:01:29.924Z,6.11
2022-12-08T12:02:30.357Z,6.16
2022-12-08T12:03:30.517Z,6.18
2022-12-08T12:04:30.715Z,6.25
2022-12-08T12:06:03.368Z,6.10
2022-12-08T12:06:54.152Z,6.03
2022-12-08T12:07:32.632Z,6.04
2022-12-08T12:08:31.810Z,6.01
2022-12-08T12:09:32.137Z,6.04
2022-12-08T12:10:32.317Z,6.06
2022-12-08T12:11:32.561Z,6.01
2022-12-08T12:12:37.975Z,6.03
2022-12-08T12:13:34.051Z,6.01
2022-12-08T12:14:33.333Z,5.98
2022-12-08T12:15:33.612Z,5.93
2022-12-08T12:16:33.912Z,6.01
2022-12-08T12:17:34.087Z,6.00
2022-12-08T12:18:34.494Z,5.98
2022-12-08T12:19:34.771Z,5.98
2022-12-08T12:20:35.044Z,6.00
2022-12-08T12:21:35.269Z,6.00
2022-12-08T12:22:35.566Z,6.00
2022-12-08T12:23:35.802Z,5.98
2022-12-08T12:24:36.467Z,6.01
2022-12-08T12:25:36.376Z,5.93
2022-12-08T12:26:36.498Z,5.93
2022-12-08T12:27:36.736Z,6.04
2022-12-08T12:28:37.005Z,6.13
2022-12-08T12:29:37.260Z,6.11
2022-12-08T12:30:37.587Z,6.09
2022-12-08T12:31:38.797Z,6.18
2022-12-08T12:32:38.068Z,6.21
2022-12-08T12:33:38.544Z,6.29
2022-12-08T12:34:38.635Z,6.28
2022-12-08T12:35:38.888Z,6.36
2022-12-08T12:36:39.264Z,6.33
2022-12-08T12:37:39.568Z,6.21
2022-12-08T12:38:39.830Z,6.13
2022-12-08T12:39:40.090Z,6.18
2022-12-08T12:40:40.374Z,6.14
2022-12-08T12:41:41.620Z,6.03
2022-12-08T12:42:41.013Z,6.01
2022-12-08T12:43:41.244Z,6.03
2022-12-08T12:44:41.539Z,6.01
2022-12-08T12:45:41.803Z,6.06
2022-12-08T12:46:42.056Z,6.09
2022-12-08T12:47:42.344Z,6.21
2022-12-08T12:48:42.607Z,6.28
2022-12-08T12:49:42.835Z,6.36
2022-12-08T12:50:43.138Z,6.46
2022-12-08T12:51:43.397Z,6.50
2022-12-08T12:52:43.680Z,6.54
2022-12-08T12:53:44.021Z,6.56
2022-12-08T12:54:44.343Z,6.56
2022-12-08T12:55:44.607Z,6.62
2022-12-08T12:56:44.872Z,6.65
2022-12-08T12:57:45.162Z,6.73
2022-12-08T12:58:45.443Z,6.71
2022-12-08T12:59:50.081Z,6.69
2022-12-08T13:00:47.071Z,6.65
2022-12-08T13:01:46.448Z,6.61
2022-12-08T13:02:46.713Z,6.58
2022-12-08T13:03:46.943Z,6.54
2022-12-08T13:04:47.190Z,6.51
2022-12-08T13:05:47.445Z,6.47
2022-12-08T13:06:47.727Z,6.50
2022-12-08T13:07:48.061Z,6.58
2022-12-08T13:08:48.322Z,6.59
2022-12-08T13:09:48.654Z,6.54
2022-12-08T13:10:48.963Z,6.58
2022-12-08T13:11:49.176Z,6.62
2022-12-08T13:12:49.425Z,6.65
2022-12-08T13:13:49.741Z,6.65
2022-12-08T13:14:50.027Z,6.69
2022-12-08T13:15:50.291Z,6.69
2022-12-08T13:16:50.568Z,6.66
2022-12-08T13:17:50.823Z,6.65
2022-12-08T13:18:51.118Z,6.54
2022-12-08T13:20:03.731Z,6.44
2022-12-08T13:20:52.624Z,6.46
2022-12-08T13:21:51.899Z,6.43
2022-12-08T13:22:52.154Z,6.41